Time;durP1;ratioP1;P1;durP2;ratioP2;P2;SDS_P1;SDS_P2;PMS_P1;PMS_P2;Temp;Humidity;BMP_temperature;BMP_pressure;BME280_temperature;BME280_humidity;BME280_pressure;Samples;Min_cycle;Max_cycle;Signal;HPM_P1;HPM_P2
2022/03/14 00:02:05;;;;;;;8.13;5.55;;;;;;;3.68;60.85;100533.50;5053200;28;20027;-62
2022/03/14 00:04:34;;;;;;;8.13;5.65;;;;;;;3.71;61.01;100529.88;5071169;28;20029;-61
2022/03/14 00:07:00;;;;;;;10.50;5.63;;;;;;;3.68;60.23;100528.19;5070493;28;20028;-62
2022/03/14 00:09:27;;;;;;;10.57;6.22;;;;;;;3.63;60.44;100519.59;5070249;28;20039;-62
2022/03/14 00:11:57;;;;;;;9.32;5.70;;;;;;;3.65;60.63;100522.19;5070954;28;20029;-61
2022/03/14 00:14:25;;;;;;;7.40;5.50;;;;;;;3.67;60.66;100523.81;5070815;28;20033;-60
2022/03/14 00:16:52;;;;;;;8.98;5.53;;;;;;;3.65;61.10;100530.13;5052457;28;20036;-61
2022/03/14 00:19:20;;;;;;;8.68;5.50;;;;;;;3.65;60.87;100530.13;5070423;28;20051;-62
2022/03/14 00:21:46;;;;;;;9.65;5.72;;;;;;;3.65;60.30;100530.97;5070412;28;20039;-61
2022/03/14 00:24:12;;;;;;;11.25;5.53;;;;;;;3.65;60.41;100540.72;5070148;28;20028;-60
2022/03/14 00:26:39;;;;;;;10.90;5.75;;;;;;;3.61;60.41;100534.66;5070563;28;20136;-62
2022/03/14 00:29:06;;;;;;;8.43;5.95;;;;;;;3.53;60.79;100529.69;5069937;28;20052;-61
2022/03/14 00:31:32;;;;;;;7.78;5.43;;;;;;;3.60;60.95;100535.59;5070652;28;20059;-61
2022/03/14 00:33:58;;;;;;;9.77;5.40;;;;;;;3.61;61.04;100523.19;5069945;28;20032;-61
2022/03/14 00:36:25;;;;;;;8.05;5.30;;;;;;;3.69;60.17;100537.00;5070039;28;20040;-62
2022/03/14 00:38:51;;;;;;;7.25;4.57;;;;;;;3.51;60.40;100504.22;5070546;28;20031;-62
2022/03/14 00:41:17;;;;;;;8.70;4.85;;;;;;;3.76;60.19;100537.63;5070403;28;20033;-62
2022/03/14 00:43:44;;;;;;;8.77;5.22;;;;;;;3.77;60.48;100537.56;5070246;28;20082;-60
2022/03/14 00:46:10;;;;;;;8.00;5.25;;;;;;;3.70;60.25;100512.25;5052976;28;20109;-61
2022/03/14 00:48:36;;;;;;;7.65;4.85;;;;;;;3.80;59.23;100534.78;5070242;28;20485;-61
2022/03/14 00:51:04;;;;;;;7.60;5.43;;;;;;;3.78;59.64;100531.34;5069970;28;20033;-61
2022/03/14 00:53:31;;;;;;;7.75;5.63;;;;;;;3.73;60.37;100534.16;5074338;28;20021;-62
2022/03/14 00:55:59;;;;;;;9.82;5.40;;;;;;;3.75;60.32;100527.97;5073966;28;20033;-61
2022/03/14 00:58:26;;;;;;;6.80;4.82;;;;;;;3.78;59.81;100523.38;5073947;28;20107;-64
2022/03/14 01:00:51;;;;;;;9.05;5.22;;;;;;;3.59;59.70;100481.75;5074605;28;20028;-61
2022/03/14 01:03:17;;;;;;;8.18;4.82;;;;;;;3.83;59.34;100513.47;5056194;28;20535;-60
2022/03/14 01:05:43;;;;;;;7.35;4.75;;;;;;;3.75;59.52;100491.72;5055885;28;20029;-60
2022/03/14 01:08:09;;;;;;;9.40;5.45;;;;;;;3.82;59.52;100500.28;5074304;28;20020;-61
2022/03/14 01:10:35;;;;;;;9.65;5.03;;;;;;;3.84;59.71;100495.78;5074628;28;20466;-60
2022/03/14 01:13:04;;;;;;;9.07;5.40;;;;;;;3.85;60.17;100506.31;5073597;28;20033;-60
2022/03/14 01:15:34;;;;;;;7.80;5.07;;;;;;;3.88;59.69;100508.84;5055516;28;20124;-60
2022/03/14 01:18:00;;;;;;;8.10;5.00;;;;;;;3.87;59.71;100532.75;5073973;28;20029;-60
2022/03/14 01:20:26;;;;;;;8.13;5.38;;;;;;;3.80;59.68;100526.84;5074149;28;20104;-62
2022/03/14 01:22:55;;;;;;;8.10;4.78;;;;;;;3.73;59.50;100515.63;5073510;28;20097;-59
2022/03/14 01:25:23;;;;;;;7.78;5.13;;;;;;;3.75;60.21;100526.16;5055527;28;20477;-61
2022/03/14 01:27:50;;;;;;;6.93;4.65;;;;;;;3.71;59.80;100509.53;5074011;28;20111;-60
2022/03/14 01:30:17;;;;;;;9.48;5.97;;;;;;;3.70;59.42;100512.25;5073705;28;20086;-59
2022/03/14 01:32:43;;;;;;;7.63;5.22;;;;;;;3.66;60.04;100519.44;5055476;28;20209;-60
2022/03/14 01:35:08;;;;;;;7.65;4.97;;;;;;;3.63;60.21;100514.28;5073253;28;20419;-59
2022/03/14 01:37:34;;;;;;;9.48;5.47;;;;;;;3.62;60.29;100509.91;5055885;28;20507;-61
2022/03/14 01:39:59;;;;;;;8.68;4.93;;;;;;;3.64;60.21;100521.31;5073757;28;20099;-61
2022/03/14 01:42:25;;;;;;;9.23;5.03;;;;;;;3.65;59.91;100519.53;5073369;28;20396;-61
2022/03/14 01:44:51;;;;;;;7.15;4.90;;;;;;;3.61;60.33;100505.53;5072896;28;20033;-61
2022/03/14 01:47:17;;;;;;;9.70;5.40;;;;;;;3.69;60.16;100510.53;5073429;28;20467;-61
2022/03/14 01:49:44;;;;;;;7.28;4.90;;;;;;;3.75;59.72;100515.56;5074011;28;20040;-62
2022/03/14 01:52:11;;;;;;;7.68;4.88;;;;;;;3.75;59.94;100509.44;5073180;28;20029;-61
2022/03/14 01:54:38;;;;;;;8.20;5.10;;;;;;;3.79;59.56;100518.97;5072676;28;20493;-59
2022/03/14 01:57:05;;;;;;;9.77;5.30;;;;;;;3.63;59.55;100495.75;5055482;28;20032;-60
2022/03/14 01:59:31;;;;;;;7.25;5.20;;;;;;;3.79;59.80;100524.25;5055181;28;20482;-61
2022/03/14 02:01:57;;;;;;;10.00;5.18;;;;;;;3.83;59.75;100523.22;5072527;28;20035;-61
2022/03/14 02:04:23;;;;;;;8.35;4.90;;;;;;;3.80;59.29;100521.53;5071786;28;20421;-60
2022/03/14 02:06:52;;;;;;;7.68;5.20;;;;;;;3.69;59.72;100484.06;5072944;28;20024;-59
2022/03/14 02:09:18;;;;;;;10.18;5.22;;;;;;;3.91;59.17;100509.66;5072918;28;20028;-60
2022/03/14 02:11:52;;;;;;;11.23;5.63;;;;;;;4.02;59.40;100528.59;5072582;28;20028;-58
2022/03/14 02:14:18;;;;;;;7.65;4.97;;;;;;;3.99;59.01;100529.59;5072658;28;20051;-61
2022/03/14 02:16:44;;;;;;;7.75;4.88;;;;;;;4.05;58.81;100530.25;5072490;28;20401;-59
2022/03/14 02:19:09;;;;;;;8.40;5.45;;;;;;;4.06;58.85;100530.19;5072516;28;20112;-58
2022/03/14 02:21:35;;;;;;;9.02;5.40;;;;;;;4.06;58.64;100535.47;5072122;28;20028;-60
2022/03/14 02:24:01;;;;;;;7.53;5.30;;;;;;;4.06;58.36;100535.47;5072206;28;20044;-59
2022/03/14 02:26:26;;;;;;;8.27;5.13;;;;;;;4.08;58.50;100530.13;5054807;28;20029;-61
2022/03/14 02:28:52;;;;;;;6.90;4.68;;;;;;;3.86;58.55;100502.75;5071876;28;20035;-61
2022/03/14 02:31:17;;;;;;;9.07;5.80;;;;;;;4.11;58.38;100543.25;5053904;28;20049;-58
2022/03/14 02:33:43;;;;;;;10.52;5.43;;;;;;;4.13;58.65;100542.25;5072678;28;20062;-62
2022/03/14 02:36:08;;;;;;;9.02;5.35;;;;;;;4.14;58.64;100541.34;5053663;28;20120;-60
2022/03/14 02:38:34;;;;;;;8.05;5.35;;;;;;;4.12;59.22;100555.56;5071986;28;20116;-62
2022/03/14 02:40:59;;;;;;;8.05;5.40;;;;;;;4.11;59.16;100544.13;5072543;28;20036;-60
2022/03/14 02:43:25;;;;;;;7.82;5.13;;;;;;;3.82;58.87;100503.78;5072034;28;20040;-61
2022/03/14 02:45:52;;;;;;;10.23;5.85;;;;;;;4.10;59.58;100553.00;5054017;28;20025;-60
2022/03/14 02:48:19;;;;;;;8.07;5.53;;;;;;;4.09;59.70;100545.94;5054933;28;20024;-55
2022/03/14 02:50:48;;;;;;;11.00;5.50;;;;;;;4.00;59.12;100549.00;5072056;28;20397;-60
2022/03/14 02:53:14;;;;;;;12.18;6.43;;;;;;;4.07;59.39;100539.00;5072039;28;20040;-58
2022/03/14 02:55:40;;;;;;;9.65;6.20;;;;;;;4.03;59.89;100548.88;5072134;28;20479;-61
2022/03/14 02:58:07;;;;;;;9.00;5.72;;;;;;;4.00;59.72;100546.34;5054335;28;20107;-60
2022/03/14 03:00:35;;;;;;;8.18;5.78;;;;;;;3.84;60.00;100525.78;5071501;28;20032;-61
2022/03/14 03:03:05;;;;;;;10.15;5.97;;;;;;;4.08;59.67;100556.63;5071687;28;20024;-61
2022/03/14 03:05:31;;;;;;;8.48;5.50;;;;;;;4.08;59.25;100549.53;5072095;28;20047;-61
2022/03/14 03:08:03;;;;;;;12.15;6.95;;;;;;;4.08;59.31;100554.81;5071545;28;20028;-60
2022/03/14 03:10:29;;;;;;;9.13;5.88;;;;;;;4.07;59.31;100553.09;5071186;28;20059;-61
2022/03/14 03:12:55;;;;;;;8.30;6.20;;;;;;;4.08;59.12;100554.81;5071650;28;20500;-57
2022/03/14 03:15:24;;;;;;;11.07;6.20;;;;;;;4.06;59.34;100546.09;5071390;28;20029;-57
2022/03/14 03:17:51;;;;;;;9.70;6.28;;;;;;;3.95;59.20;100535.09;5071605;28;20032;-57
2022/03/14 03:20:16;;;;;;;9.27;5.57;;;;;;;4.08;59.31;100553.97;5071222;28;20462;-59
2022/03/14 03:22:42;;;;;;;9.82;6.63;;;;;;;4.07;59.54;100558.41;5071782;28;20028;-61
2022/03/14 03:25:08;;;;;;;12.15;6.75;;;;;;;4.04;59.30;100558.53;5071526;28;20462;-61
2022/03/14 03:27:34;;;;;;;12.50;6.93;;;;;;;3.98;59.76;100556.16;5053392;28;20044;-62
2022/03/14 03:30:00;;;;;;;12.65;7.05;;;;;;;3.77;60.05;100520.81;5070840;28;20090;-59
2022/03/14 03:32:26;;;;;;;10.73;6.45;;;;;;;3.96;59.47;100558.00;5053295;28;20177;-57
2022/03/14 03:34:52;;;;;;;8.88;6.20;;;;;;;3.94;60.08;100558.06;5070099;28;20457;-62
2022/03/14 03:37:18;;;;;;;11.77;6.90;;;;;;;3.98;60.02;100567.63;5053596;28;20039;-60
2022/03/14 03:39:44;;;;;;;12.40;6.60;;;;;;;4.00;59.70;100556.94;5052925;28;20047;-61
2022/03/14 03:42:09;;;;;;;11.50;7.30;;;;;;;4.01;59.65;100563.97;5071407;28;20078;-61
2022/03/14 03:44:35;;;;;;;11.18;7.43;;;;;;;3.99;59.98;100557.88;5053879;28;20028;-61
2022/03/14 03:47:02;;;;;;;14.07;7.43;;;;;;;3.88;60.11;100558.31;5052350;28;20035;-62
2022/03/14 03:49:28;;;;;;;14.77;8.32;;;;;;;3.57;60.87;100528.63;5048686;28;20387;-62
2022/03/14 03:51:53;;;;;;;12.45;7.78;;;;;;;3.74;61.25;100572.13;5051755;28;20024;-62
2022/03/14 03:54:20;;;;;;;13.57;8.43;;;;;;;3.72;61.21;100568.66;5052648;28;20024;-62
2022/03/14 03:56:46;;;;;;;13.30;8.48;;;;;;;3.77;61.43;100571.16;5051527;28;20032;-60
2022/03/14 03:59:11;;;;;;;14.40;8.85;;;;;;;3.69;61.04;100566.16;5069021;28;20048;-62
2022/03/14 04:01:37;;;;;;;16.15;8.35;;;;;;;3.73;61.48;100575.69;5068926;28;20112;-62
2022/03/14 04:04:03;;;;;;;15.90;9.27;;;;;;;3.78;61.54;100573.72;5051757;28;20056;-62
2022/03/14 04:06:30;;;;;;;17.70;9.50;;;;;;;3.71;61.02;100559.00;5051331;28;20025;-59
2022/03/14 04:09:00;;;;;;;14.07;8.85;;;;;;;3.84;61.18;100573.47;5069118;28;20094;-59
2022/03/14 04:11:26;;;;;;;13.45;9.20;;;;;;;3.84;61.36;100578.75;5069154;28;20417;-59
2022/03/14 04:13:52;;;;;;;15.60;8.93;;;;;;;3.85;61.26;100580.47;5069176;28;20032;-55
2022/03/14 04:16:18;;;;;;;16.50;9.70;;;;;;;3.88;61.45;100582.16;5069488;28;20020;-59
2022/03/14 04:18:47;;;;;;;17.00;9.77;;;;;;;3.90;61.37;100582.94;5069275;28;20499;-74
2022/03/14 04:21:15;;;;;;;16.83;9.43;;;;;;;3.87;61.31;100588.38;5050689;28;20024;-62
2022/03/14 04:23:41;;;;;;;15.48;9.10;;;;;;;3.85;61.39;100588.44;5069232;28;20047;-66
2022/03/14 04:26:07;;;;;;;15.60;9.13;;;;;;;3.85;61.21;100580.47;5053155;28;20382;-68
2022/03/14 04:28:36;;;;;;;16.25;9.57;;;;;;;3.88;61.89;100590.97;5076085;28;20410;-66
2022/03/14 04:31:06;;;;;;;15.20;9.55;;;;;;;3.91;61.70;100594.44;5075611;28;20048;-56
2022/03/14 04:33:32;;;;;;;15.95;9.80;;;;;;;3.62;61.39;100546.09;5073397;28;20028;-63
2022/03/14 04:35:58;;;;;;;16.65;9.68;;;;;;;3.77;61.84;100584.38;5075887;28;20024;-63
2022/03/14 04:38:25;;;;;;;18.35;10.02;;;;;;;3.84;61.96;100593.81;5075456;28;20042;-61
2022/03/14 04:40:51;;;;;;;18.65;9.63;;;;;;;3.79;62.23;100586.03;5057700;28;20486;-62
2022/03/14 04:43:16;;;;;;;15.15;9.65;;;;;;;3.77;62.08;100574.63;5075982;28;20035;-61
2022/03/14 04:45:42;;;;;;;18.02;9.90;;;;;;;3.86;61.80;100584.88;5073003;28;20051;-60
2022/03/14 04:48:08;;;;;;;18.38;9.63;;;;;;;3.86;61.14;100589.31;5076422;28;20036;-61
2022/03/14 04:50:37;;;;;;;15.40;9.32;;;;;;;3.88;61.86;100587.44;5076863;28;20028;-61
2022/03/14 04:53:03;;;;;;;18.52;9.82;;;;;;;3.94;61.45;100586.34;5076157;28;20482;-62
2022/03/14 04:55:29;;;;;;;16.58;9.30;;;;;;;3.91;61.54;100575.88;5076278;28;20047;-62
2022/03/14 04:57:55;;;;;;;19.27;10.02;;;;;;;3.81;61.20;100559.50;5076677;28;20481;-60
2022/03/14 05:00:22;;;;;;;18.23;9.75;;;;;;;4.05;61.38;100592.06;5077324;28;20024;-58
2022/03/14 05:02:47;;;;;;;16.65;9.45;;;;;;;4.04;60.94;100594.78;5077148;28;20037;-61
2022/03/14 05:05:13;;;;;;;16.25;9.27;;;;;;;4.04;61.37;100603.59;5076285;28;20043;-62
2022/03/14 05:07:40;;;;;;;16.90;9.27;;;;;;;4.01;61.18;100601.94;5076874;28;20090;-61
2022/03/14 05:10:06;;;;;;;15.98;9.95;;;;;;;3.97;61.37;100607.41;5076998;28;20033;-58
2022/03/14 05:12:33;;;;;;;20.98;9.77;;;;;;;3.75;61.30;100576.50;5076816;28;20462;-60
2022/03/14 05:14:58;;;;;;;16.52;9.38;;;;;;;3.85;61.26;100606.97;5076429;28;20024;-59
2022/03/14 05:17:25;;;;;;;17.08;9.57;;;;;;;3.80;61.78;100595.69;5042352;28;20090;-58
2022/03/14 05:19:51;;;;;;;15.07;9.52;;;;;;;3.77;61.70;100602.94;5058966;28;20074;-60
2022/03/14 05:22:18;;;;;;;19.80;9.27;;;;;;;3.71;62.17;100599.56;5076665;28;20031;-61
2022/03/14 05:24:44;;;;;;;18.08;9.90;;;;;;;3.74;62.20;100598.59;5076274;28;20089;-58
2022/03/14 05:27:10;;;;;;;17.00;9.48;;;;;;;3.82;62.09;100617.69;5076466;28;20027;-62
2022/03/14 05:29:36;;;;;;;17.67;9.60;;;;;;;3.84;61.63;100615.84;5077071;28;20041;-62
2022/03/14 05:32:02;;;;;;;19.13;10.00;;;;;;;3.85;61.80;100630.81;5076711;28;20041;-61
2022/03/14 05:34:28;;;;;;;15.50;9.00;;;;;;;3.83;61.26;100618.56;5076364;28;20032;-62
2022/03/14 05:36:53;;;;;;;15.15;8.30;;;;;;;3.89;61.28;100626.25;5075507;28;20081;-60
2022/03/14 05:39:18;;;;;;;14.73;8.55;;;;;;;3.91;60.86;100636.81;5055276;28;20116;-61
2022/03/14 05:41:44;;;;;;;14.88;7.72;;;;;;;3.84;60.37;100612.34;5071975;28;20036;-61
2022/03/14 05:44:09;;;;;;;12.68;7.43;;;;;;;3.92;59.27;100620.00;5072934;28;20033;-58
2022/03/14 05:46:35;;;;;;;12.15;6.93;;;;;;;3.95;59.17;100611.91;5038737;28;20036;-59
2022/03/14 05:49:01;;;;;;;12.40;7.15;;;;;;;3.97;58.60;100599.47;5073533;28;20043;-58
2022/03/14 05:51:27;;;;;;;13.77;7.30;;;;;;;4.16;58.45;100616.34;5073589;28;20027;-59
2022/03/14 05:53:52;;;;;;;13.40;6.60;;;;;;;4.24;57.55;100618.69;5073266;28;20051;-62
2022/03/14 05:56:18;;;;;;;10.48;5.15;;;;;;;4.43;55.75;100620.53;5072913;28;20055;-60
2022/03/14 05:58:43;;;;;;;10.90;5.65;;;;;;;4.50;55.54;100611.41;5073358;28;20119;-61
2022/03/14 06:01:10;;;;;;;13.63;5.65;;;;;;;4.57;55.25;100620.81;5072932;28;20029;-60
2022/03/14 06:03:36;;;;;;;9.80;5.78;;;;;;;4.67;53.96;100610.69;5072223;28;20473;-59
2022/03/14 06:06:02;;;;;;;8.27;4.90;;;;;;;4.73;53.38;100606.91;5072804;28;20032;-59
2022/03/14 06:08:28;;;;;;;10.02;5.43;;;;;;;4.87;52.56;100619.56;5072455;28;20028;-59
2022/03/14 06:10:54;;;;;;;9.57;5.15;;;;;;;4.80;52.01;100610.13;5073182;28;20044;-60
2022/03/14 06:13:20;;;;;;;7.47;4.80;;;;;;;4.68;51.91;100603.56;5054566;28;20078;-60
2022/03/14 06:15:47;;;;;;;9.05;4.97;;;;;;;4.84;52.37;100617.06;5072508;28;20028;-61
2022/03/14 06:18:13;;;;;;;7.13;4.70;;;;;;;5.01;51.22;100621.59;5054938;28;20092;-61
2022/03/14 06:20:39;;;;;;;9.07;5.10;;;;;;;4.94;50.37;100581.22;5072510;28;20036;-60
2022/03/14 06:23:04;;;;;;;12.57;5.05;;;;;;;5.51;48.96;100624.69;5072242;28;20108;-60
2022/03/14 06:25:30;;;;;;;8.70;3.80;;;;;;;5.97;47.07;100617.16;5072671;28;20043;-58
2022/03/14 06:27:55;;;;;;;7.63;3.63;;;;;;;6.37;45.29;100622.34;5072713;28;20036;-60
2022/03/14 06:30:21;;;;;;;9.38;3.83;;;;;;;6.57;43.89;100617.81;5072131;28;20571;-61
2022/03/14 06:32:48;;;;;;;6.93;3.60;;;;;;;6.86;42.61;100618.94;5072449;28;20038;-60
2022/03/14 06:35:16;;;;;;;4.88;2.80;;;;;;;8.07;39.86;100622.19;5072084;28;20442;-61
2022/03/14 06:37:43;;;;;;;5.78;2.80;;;;;;;9.15;39.30;100620.28;5054533;28;20470;-59
2022/03/14 06:40:09;;;;;;;6.68;3.03;;;;;;;9.11;36.10;100621.44;5071989;28;20039;-58
2022/03/14 06:42:41;;;;;;;4.63;2.60;;;;;;;8.69;36.93;100613.28;5071975;28;20363;-60
2022/03/14 06:45:11;;;;;;;5.00;3.05;;;;;;;8.30;37.67;100628.84;5071987;28;20055;-61
2022/03/14 06:47:38;;;;;;;6.80;3.00;;;;;;;8.00;38.61;100637.69;5072733;28;20035;-60
2022/03/14 06:50:05;;;;;;;7.60;3.40;;;;;;;7.69;38.73;100631.41;5071053;28;20025;-61
2022/03/14 06:52:31;;;;;;;4.88;2.88;;;;;;;7.38;39.81;100637.56;5071939;28;20182;-58
2022/03/14 06:54:56;;;;;;;3.42;2.42;;;;;;;7.22;40.79;100641.03;5072455;28;20107;-60
2022/03/14 06:57:22;;;;;;;8.43;3.45;;;;;;;7.19;40.76;100635.88;5072447;28;20028;-60
2022/03/14 06:59:48;;;;;;;6.90;3.30;;;;;;;7.14;40.44;100640.59;5071838;28;20642;-60
2022/03/14 07:02:13;;;;;;;9.10;2.80;;;;;;;7.08;40.22;100640.94;5071627;28;20108;-59
2022/03/14 07:04:39;;;;;;;5.30;2.85;;;;;;;6.84;39.11;100606.69;5072051;28;20032;-61
2022/03/14 07:07:05;;;;;;;6.70;2.50;;;;;;;7.10;39.03;100645.22;5071996;28;20028;-63
2022/03/14 07:09:32;;;;;;;4.93;2.75;;;;;;;7.28;38.91;100646.06;5071766;28;20036;-62
2022/03/14 07:11:57;;;;;;;4.93;2.83;;;;;;;7.79;37.55;100655.75;5071657;28;20035;-61
2022/03/14 07:14:23;;;;;;;6.43;2.33;;;;;;;8.11;36.63;100645.06;5072089;28;20033;-61
2022/03/14 07:16:49;;;;;;;5.75;2.65;;;;;;;8.38;35.72;100654.25;5072023;28;20028;-64
2022/03/14 07:19:15;;;;;;;4.57;2.60;;;;;;;8.44;35.29;100652.09;5071424;28;20028;-60
2022/03/14 07:21:41;;;;;;;6.60;2.58;;;;;;;8.64;34.64;100646.53;5071281;28;20036;-62
2022/03/14 07:24:07;;;;;;;3.88;2.00;;;;;;;8.14;33.74;100522.19;5071833;28;20024;-62
2022/03/14 07:26:32;;;;;;;7.60;2.55;;;;;;;8.61;34.46;100642.25;5071611;28;20519;-59
2022/03/14 07:28:58;;;;;;;4.75;2.67;;;;;;;8.41;35.11;100636.22;5053605;28;20033;-62
2022/03/14 07:31:24;;;;;;;6.63;2.63;;;;;;;8.25;33.52;100640.75;5070901;28;20051;-62
2022/03/14 07:33:50;;;;;;;7.20;3.00;;;;;;;7.95;35.33;100649.53;5071697;28;20040;-62
2022/03/14 07:36:16;;;;;;;3.92;2.47;;;;;;;8.00;35.00;100647.50;5071602;28;20136;-63
2022/03/14 07:38:41;;;;;;;4.32;2.15;;;;;;;8.07;34.88;100638.19;5070751;28;20027;-62
2022/03/14 07:41:08;;;;;;;3.13;2.30;;;;;;;8.28;33.81;100645.91;5071163;28;20497;-62
2022/03/14 07:43:34;;;;;;;4.15;2.25;;;;;;;8.35;33.61;100633.94;5071275;28;20406;-62
2022/03/14 07:46:01;;;;;;;4.13;2.38;;;;;;;8.69;32.74;100626.63;5071832;28;20462;-59
2022/03/14 07:48:27;;;;;;;5.28;2.30;;;;;;;8.90;32.06;100615.59;5071270;28;20169;-62
2022/03/14 07:50:52;;;;;;;7.15;2.42;;;;;;;8.93;32.44;100642.13;5070616;28;20458;-62
2022/03/14 07:53:18;;;;;;;3.95;2.70;;;;;;;9.02;32.92;100638.03;5071305;28;20028;-60
2022/03/14 07:55:43;;;;;;;4.60;2.40;;;;;;;9.29;32.51;100646.16;5071056;28;20029;-63
2022/03/14 07:58:09;;;;;;;8.48;2.53;;;;;;;9.76;32.10;100637.91;5052223;28;20124;-62
2022/03/14 08:00:34;;;;;;;7.32;3.55;;;;;;;10.34;30.91;100637.72;5052137;28;20142;-62
2022/03/14 08:03:00;;;;;;;4.15;2.60;;;;;;;11.34;28.64;100623.81;5052818;28;20044;-62
2022/03/14 08:05:26;;;;;;;6.82;2.65;;;;;;;11.84;28.45;100636.34;5070375;28;20266;-59
2022/03/14 08:07:54;;;;;;;11.20;3.97;;;;;;;11.99;28.33;100634.38;5070689;28;20484;-60
2022/03/14 08:10:20;;;;;;;10.23;3.58;;;;;;;11.65;27.95;100637.69;5070257;28;20115;-60
2022/03/14 08:12:50;;;;;;;5.43;2.78;;;;;;;11.45;28.37;100644.50;5053275;28;20032;-61
2022/03/14 08:15:26;;;;;;;6.97;2.55;;;;;;;11.28;29.26;100634.97;5052443;28;20039;-62
2022/03/14 08:17:53;;;;;;;7.55;2.22;;;;;;;10.65;29.39;100635.69;5070597;28;20025;-63
2022/03/14 08:20:19;;;;;;;4.80;2.05;;;;;;;10.28;29.71;100620.25;5070904;28;20068;-59
2022/03/14 08:22:45;;;;;;;6.97;2.13;;;;;;;10.37;29.92;100632.19;5070104;28;20519;-63
2022/03/14 08:25:11;;;;;;;5.20;2.17;;;;;;;10.33;29.78;100633.31;5070214;28;20085;-61
2022/03/14 08:27:38;;;;;;;4.80;2.17;;;;;;;10.25;30.03;100598.19;5070765;28;20055;-61
2022/03/14 08:30:05;;;;;;;5.65;2.67;;;;;;;10.70;29.76;100625.53;5070429;28;20045;-63
2022/03/14 08:32:32;;;;;;;6.38;3.03;;;;;;;10.73;29.09;100625.31;5070556;28;20470;-61
2022/03/14 08:34:59;;;;;;;3.33;2.15;;;;;;;10.51;29.47;100635.75;5070924;28;20040;-61
2022/03/14 08:37:24;;;;;;;4.28;2.33;;;;;;;10.47;29.38;100630.63;5070195;28;20045;-61
2022/03/14 08:39:50;;;;;;;5.10;2.60;;;;;;;10.60;29.16;100629.78;5070321;28;20028;-61
2022/03/14 08:42:16;;;;;;;4.68;2.40;;;;;;;10.53;28.96;100625.81;5070712;28;20060;-59
2022/03/14 08:44:42;;;;;;;7.00;2.50;;;;;;;10.26;29.33;100622.19;5070681;28;20141;-63
2022/03/14 08:47:07;;;;;;;7.28;2.50;;;;;;;10.15;29.38;100624.69;5070269;28;20115;-61
2022/03/14 08:49:34;;;;;;;10.02;2.60;;;;;;;10.29;29.75;100621.09;5070538;28;20032;-61
2022/03/14 08:52:00;;;;;;;5.90;2.55;;;;;;;10.20;29.04;100620.78;5070732;28;20032;-59
2022/03/14 08:54:26;;;;;;;5.00;2.45;;;;;;;10.13;29.69;100626.63;5070114;28;20039;-59
2022/03/14 08:56:51;;;;;;;4.43;2.10;;;;;;;10.05;29.74;100624.44;5069726;28;20033;-62
2022/03/14 08:59:17;;;;;;;6.53;3.05;;;;;;;9.95;29.77;100618.00;5070507;28;20120;-60
2022/03/14 09:01:43;;;;;;;3.38;2.10;;;;;;;9.81;29.78;100579.63;5070576;28;20499;-59
2022/03/14 09:04:08;;;;;;;4.90;2.75;;;;;;;10.20;29.49;100610.06;5070052;28;20541;-61
2022/03/14 09:06:35;;;;;;;5.13;2.20;;;;;;;10.20;29.41;100612.75;5070085;28;20036;-61
2022/03/14 09:09:02;;;;;;;3.92;2.00;;;;;;;10.12;29.32;100617.72;5052468;28;20029;-60
2022/03/14 09:11:28;;;;;;;4.93;2.15;;;;;;;9.51;29.50;100540.56;5070345;28;20059;-60
2022/03/14 09:13:53;;;;;;;7.63;1.83;;;;;;;9.68;29.90;100605.47;5072157;28;20446;-61
2022/03/14 09:16:20;;;;;;;6.03;2.50;;;;;;;9.62;30.35;100622.75;5055956;28;20029;-61
2022/03/14 09:18:46;;;;;;;3.72;2.30;;;;;;;9.51;30.79;100619.88;5074103;28;20450;-58
2022/03/14 09:21:14;;;;;;;4.03;2.00;;;;;;;9.40;30.45;100593.84;5074109;28;20169;-62
2022/03/14 09:23:42;;;;;;;6.20;1.92;;;;;;;9.43;30.04;100615.03;5073610;28;20378;-61
2022/03/14 09:26:09;;;;;;;4.47;2.20;;;;;;;9.08;31.15;100613.63;5073258;28;20115;-62
2022/03/14 09:28:36;;;;;;;5.00;2.20;;;;;;;8.95;31.74;100618.88;5073803;28;20028;-61
2022/03/14 09:31:02;;;;;;;6.35;2.65;;;;;;;8.86;31.30;100574.00;5073626;28;20064;-63
2022/03/14 09:33:28;;;;;;;4.72;2.40;;;;;;;9.30;31.18;100597.09;5073218;28;20417;-62
2022/03/14 09:35:54;;;;;;;4.63;2.15;;;;;;;9.44;30.77;100609.59;5073083;28;20036;-61
2022/03/14 09:38:20;;;;;;;3.15;2.20;;;;;;;8.98;31.52;100612.47;5073620;28;20032;-61
2022/03/14 09:40:46;;;;;;;6.32;2.58;;;;;;;8.66;31.61;100608.13;5055694;28;20034;-60
2022/03/14 09:43:16;;;;;;;8.20;2.58;;;;;;;8.65;32.31;100614.41;5073444;28;20033;-63
2022/03/14 09:45:46;;;;;;;5.47;2.47;;;;;;;8.73;32.13;100620.16;5072649;28;20037;-60
2022/03/14 09:48:14;;;;;;;4.97;2.53;;;;;;;8.67;32.32;100609.00;5073053;28;20033;-61
2022/03/14 09:50:41;;;;;;;3.55;2.72;;;;;;;8.63;32.06;100613.63;5055342;28;20323;-65
2022/03/14 09:53:16;;;;;;;3.97;2.33;;;;;;;8.61;32.41;100618.22;5073200;28;20029;-61
2022/03/14 09:55:46;;;;;;;2.10;1.88;;;;;;;8.52;31.75;100618.78;5072975;28;20082;-62
2022/03/14 09:58:13;;;;;;;3.42;2.03;;;;;;;8.47;31.78;100609.19;5055152;28;20032;-63
2022/03/14 10:00:39;;;;;;;4.00;2.08;;;;;;;8.16;32.18;100594.13;5055577;28;20140;-61
2022/03/14 10:03:05;;;;;;;5.63;2.70;;;;;;;8.10;32.74;100618.50;5072881;28;20032;-61
2022/03/14 10:05:31;;;;;;;4.80;2.88;;;;;;;7.92;33.12;100601.72;5072120;28;20032;-60
2022/03/14 10:07:57;;;;;;;7.57;2.88;;;;;;;7.84;33.48;100595.03;5072688;28;20028;-62
2022/03/14 10:10:23;;;;;;;7.93;2.83;;;;;;;7.61;33.42;100607.84;5072531;28;20435;-62
2022/03/14 10:12:57;;;;;;;4.28;2.58;;;;;;;7.40;33.81;100603.69;5054728;28;20071;-62
2022/03/14 10:15:25;;;;;;;5.97;2.40;;;;;;;7.20;34.27;100605.63;5056103;28;20101;-62
2022/03/14 10:17:55;;;;;;;4.35;2.50;;;;;;;7.00;35.19;100607.59;5072585;28;20031;-58
2022/03/14 10:20:22;;;;;;;5.03;2.47;;;;;;;6.73;35.16;100602.75;5072387;28;20036;-61
2022/03/14 10:22:49;;;;;;;5.25;2.53;;;;;;;6.39;35.57;100585.88;5054939;28;20103;-60
2022/03/14 10:25:19;;;;;;;4.30;2.25;;;;;;;6.39;36.12;100600.97;5053980;28;20434;-62
2022/03/14 10:27:54;;;;;;;3.67;2.15;;;;;;;6.28;36.61;100601.53;5054463;28;20029;-61
2022/03/14 10:30:29;;;;;;;4.47;2.20;;;;;;;6.37;36.48;100592.22;5054820;28;20115;-62
2022/03/14 10:33:08;;;;;;;3.80;1.77;;;;;;;6.35;35.88;100586.97;5072110;28;20037;-61
2022/03/14 10:35:39;;;;;;;2.95;2.00;;;;;;;6.47;36.44;100599.66;5072122;28;20551;-59
2022/03/14 10:38:07;;;;;;;3.00;2.15;;;;;;;6.40;36.20;100603.56;5072960;28;20036;-62
2022/03/14 10:40:38;;;;;;;3.00;2.10;;;;;;;6.36;36.65;100583.38;5054102;28;20032;-63
2022/03/14 10:43:25;;;;;;;4.00;2.30;;;;;;;6.33;36.81;100583.53;5072206;28;20082;-64
2022/03/14 10:45:51;;;;;;;3.20;2.13;;;;;;;6.44;36.61;100575.88;5072542;28;20385;-62
2022/03/14 10:48:38;;;;;;;5.32;2.20;;;;;;;6.73;36.26;100565.50;5072775;28;20067;-63
2022/03/14 10:51:06;;;;;;;6.28;2.75;;;;;;;7.08;36.11;100587.69;5071868;28;20185;-67
2022/03/14 10:53:34;;;;;;;2.40;2.05;;;;;;;7.21;35.97;100580.72;5066904;28;20039;-60
2022/03/14 10:56:02;;;;;;;3.67;2.25;;;;;;;7.33;35.39;100585.41;5069427;28;20035;-63
2022/03/14 10:58:33;;;;;;;2.92;2.13;;;;;;;7.42;35.13;100591.16;5070545;28;20020;-64
2022/03/14 11:01:07;;;;;;;3.97;2.30;;;;;;;7.33;35.73;100588.06;5069783;28;20079;-64
2022/03/14 11:03:35;;;;;;;5.30;2.38;;;;;;;7.14;35.92;100580.22;5071661;28;20403;-68
2022/03/14 11:06:18;;;;;;;4.85;2.80;;;;;;;7.10;36.15;100588.44;5071823;28;20358;-68
2022/03/14 11:08:48;;;;;;;3.53;2.10;;;;;;;6.83;36.40;100549.06;5066591;28;20046;-67
2022/03/14 11:11:16;;;;;;;4.30;2.35;;;;;;;6.97;36.32;100582.94;5070378;28;20039;-64
2022/03/14 11:13:47;;;;;;;3.47;2.22;;;;;;;6.84;36.85;100577.41;5035466;28;20037;-69
2022/03/14 11:16:25;;;;;;;4.18;2.60;;;;;;;6.74;37.15;100593.84;5034620;28;20113;-66
2022/03/14 11:18:51;;;;;;;4.22;2.08;;;;;;;6.49;37.51;100598.69;5051669;28;20021;-68
2022/03/14 11:21:20;;;;;;;4.57;2.40;;;;;;;6.42;37.40;100592.88;5065960;28;20046;-65
2022/03/14 11:23:48;;;;;;;2.78;1.83;;;;;;;6.44;37.31;100594.47;5067406;28;20367;-65
2022/03/14 11:26:17;;;;;;;3.55;2.20;;;;;;;6.43;37.06;100590.09;5071780;28;20078;-65
2022/03/14 11:28:46;;;;;;;4.88;2.20;;;;;;;6.46;37.23;100581.97;5071461;28;20056;-64